createdAt,value
2022-08-19T00:01:39.222Z,99.90
2022-08-19T00:04:10.805Z,99.90
2022-08-19T00:06:40.692Z,99.90
2022-08-19T00:09:10.739Z,99.90
2022-08-19T00:11:39.074Z,99.90
2022-08-19T00:14:09.848Z,99.90
2022-08-19T00:16:41.457Z,99.90
2022-08-19T00:19:11.436Z,99.90
2022-08-19T00:21:40.988Z,1.00
2022-08-19T00:24:13.422Z,99.90
2022-08-19T00:26:42.609Z,1.00
2022-08-19T00:29:13.435Z,1.00
2022-08-19T00:31:43.050Z,1.00
2022-08-19T00:34:13.149Z,99.90
2022-08-19T00:36:42.514Z,1.00
2022-08-19T00:39:11.053Z,99.90
2022-08-19T00:41:39.836Z,1.00
2022-08-19T00:44:22.702Z,1.00
2022-08-19T00:46:58.540Z,1.00
2022-08-19T00:49:35.731Z,1.00
2022-08-19T00:52:09.940Z,1.00
2022-08-19T00:54:40.123Z,1.00
2022-08-19T00:57:11.029Z,1.00
2022-08-19T01:00:00.416Z,1.00
2022-08-19T01:02:28.798Z,1.00
2022-08-19T01:04:57.004Z,1.00
2022-08-19T01:07:24.537Z,99.90
2022-08-19T01:09:52.373Z,99.90
2022-08-19T01:12:20.315Z,99.90
2022-08-19T01:14:48.862Z,1.00
2022-08-19T01:17:17.320Z,99.90
2022-08-19T01:19:47.095Z,1.00
2022-08-19T01:22:35.869Z,1.00
2022-08-19T01:25:04.440Z,1.00
2022-08-19T01:27:49.724Z,1.00
2022-08-19T01:30:31.448Z,1.00
2022-08-19T01:33:00.948Z,1.00
2022-08-19T01:35:31.284Z,1.00
2022-08-19T01:38:02.938Z,1.00
2022-08-19T01:40:33.950Z,86.00
2022-08-19T01:43:01.706Z,99.90
2022-08-19T01:45:30.548Z,1.00
2022-08-19T01:48:02.354Z,99.90
2022-08-19T01:50:32.406Z,99.90
2022-08-19T01:53:06.389Z,99.90
2022-08-19T01:55:40.797Z,58.80
2022-08-19T01:58:15.694Z,1.00
2022-08-19T02:00:44.084Z,99.90
2022-08-19T02:03:13.146Z,99.90
2022-08-19T02:05:44.349Z,99.90
2022-08-19T02:08:13.134Z,99.90
2022-08-19T02:10:44.057Z,99.90
2022-08-19T02:13:14.562Z,99.90
2022-08-19T02:15:42.790Z,99.90
2022-08-19T02:18:10.173Z,99.90
2022-08-19T02:20:39.826Z,99.90
2022-08-19T02:23:13.866Z,99.90
2022-08-19T02:25:45.636Z,99.90
2022-08-19T02:28:18.011Z,99.90
2022-08-19T02:30:48.143Z,99.90
2022-08-19T02:33:16.483Z,99.90
2022-08-19T02:35:45.839Z,99.90
2022-08-19T02:38:26.609Z,99.90
2022-08-19T02:41:00.279Z,99.90
2022-08-19T02:43:29.435Z,99.90
2022-08-19T02:46:02.204Z,99.90
2022-08-19T02:48:29.711Z,1.00
2022-08-19T02:50:57.004Z,99.90
2022-08-19T02:53:26.158Z,99.90
2022-08-19T02:55:53.806Z,99.90
2022-08-19T02:58:22.541Z,1.00
2022-08-19T03:00:55.973Z,99.90
2022-08-19T03:03:23.374Z,1.00
2022-08-19T03:05:57.183Z,1.00
2022-08-19T03:08:26.692Z,1.00
2022-08-19T03:10:54.987Z,1.00
2022-08-19T03:13:22.587Z,1.00
2022-08-19T03:15:49.969Z,1.00
2022-08-19T03:18:18.445Z,1.00
2022-08-19T03:20:53.382Z,1.00
2022-08-19T03:23:21.636Z,1.00
2022-08-19T03:25:58.112Z,1.00
2022-08-19T03:28:33.027Z,1.00
2022-08-19T03:31:04.205Z,1.00
2022-08-19T03:33:53.034Z,1.00
2022-08-19T03:36:23.999Z,1.00
2022-08-19T03:38:57.532Z,1.00
2022-08-19T03:41:44.207Z,1.00
2022-08-19T03:44:17.730Z,1.00
2022-08-19T03:46:52.810Z,1.00
2022-08-19T03:49:21.203Z,1.00
2022-08-19T03:51:56.934Z,1.00
2022-08-19T03:54:26.295Z,1.00
2022-08-19T03:56:56.109Z,1.00
2022-08-19T03:59:30.113Z,1.00
2022-08-19T04:01:59.467Z,1.00
2022-08-19T04:04:28.959Z,1.00
2022-08-19T04:06:57.899Z,1.00
2022-08-19T04:09:26.264Z,1.00
2022-08-19T04:11:58.052Z,1.00
2022-08-19T04:14:31.357Z,1.00
2022-08-19T04:17:01.091Z,1.00
2022-08-19T04:19:30.834Z,1.00
2022-08-19T04:21:59.544Z,1.00
2022-08-19T04:24:29.366Z,1.00
2022-08-19T04:26:57.307Z,1.00
2022-08-19T04:29:27.993Z,1.00
2022-08-19T04:31:57.372Z,1.00
2022-08-19T04:34:27.897Z,1.00
2022-08-19T04:36:58.342Z,1.00
2022-08-19T04:39:49.946Z,1.00
2022-08-19T04:42:38.298Z,1.00
2022-08-19T04:45:14.930Z,1.00
2022-08-19T04:47:47.443Z,1.00
2022-08-19T04:50:27.755Z,1.00
2022-08-19T04:52:57.524Z,1.00
2022-08-19T04:55:26.925Z,1.00
2022-08-19T04:57:55.630Z,1.00
2022-08-19T05:00:23.597Z,1.00
2022-08-19T05:02:51.068Z,1.00
2022-08-19T05:05:19.349Z,1.00
2022-08-19T05:07:47.129Z,1.00
2022-08-19T05:10:14.868Z,1.00
2022-08-19T05:12:42.527Z,1.00
2022-08-19T05:15:10.558Z,1.00
2022-08-19T05:17:39.279Z,1.00
2022-08-19T05:20:27.621Z,1.00
2022-08-19T05:22:55.343Z,1.00
2022-08-19T05:25:26.518Z,1.00
2022-08-19T05:27:53.850Z,1.00
2022-08-19T05:30:33.399Z,1.00
2022-08-19T05:33:11.159Z,1.00
2022-08-19T05:35:40.289Z,1.00
2022-08-19T05:38:09.367Z,1.00
2022-08-19T05:40:37.558Z,1.00
2022-08-19T05:43:07.034Z,1.00
2022-08-19T05:45:39.379Z,1.00
2022-08-19T05:48:06.787Z,1.00
2022-08-19T05:50:34.124Z,99.90
2022-08-19T05:53:01.358Z,99.90
2022-08-19T05:55:29.794Z,99.90
2022-08-19T05:57:57.184Z,44.40
2022-08-19T06:00:24.864Z,65.30
2022-08-19T06:02:53.012Z,1.00
2022-08-19T06:05:21.150Z,1.00
2022-08-19T06:07:48.483Z,1.00
2022-08-19T06:10:16.418Z,1.00
2022-08-19T06:12:54.021Z,1.00
2022-08-19T06:15:27.500Z,1.00
2022-08-19T06:17:56.098Z,97.80
2022-08-19T06:20:54.107Z,13.30
2022-08-19T06:23:17.151Z,1.00
2022-08-19T06:25:44.962Z,1.00
2022-08-19T06:28:15.367Z,1.00
2022-08-19T06:30:42.959Z,1.00
2022-08-19T06:33:10.451Z,1.00
2022-08-19T06:35:42.751Z,1.00
2022-08-19T06:38:10.655Z,1.00
2022-08-19T06:40:39.072Z,1.00
2022-08-19T06:43:08.587Z,1.00
2022-08-19T06:45:40.523Z,1.00
2022-08-19T06:48:09.606Z,1.00
2022-08-19T06:50:39.634Z,1.00
2022-08-19T06:53:09.790Z,1.00
2022-08-19T06:55:39.478Z,1.00
2022-08-19T06:58:08.852Z,1.00
2022-08-19T07:00:37.866Z,1.00
2022-08-19T07:03:08.850Z,1.00
2022-08-19T07:05:45.704Z,1.00
2022-08-19T07:08:14.821Z,1.00
2022-08-19T07:10:47.040Z,1.00
2022-08-19T07:13:15.129Z,1.00
2022-08-19T07:15:43.584Z,1.00
2022-08-19T07:18:11.562Z,1.00
2022-08-19T07:20:42.938Z,1.00
2022-08-19T07:23:15.915Z,1.00
2022-08-19T07:25:53.118Z,1.00
2022-08-19T07:28:24.195Z,1.00
2022-08-19T07:30:54.107Z,1.00
2022-08-19T07:33:24.625Z,1.00
2022-08-19T07:35:56.571Z,1.00
2022-08-19T07:38:24.216Z,1.00
2022-08-19T07:40:52.700Z,1.00
2022-08-19T07:43:22.299Z,1.00
2022-08-19T07:45:50.984Z,1.00
2022-08-19T07:48:18.772Z,1.00
2022-08-19T07:50:46.656Z,1.00
2022-08-19T07:53:14.408Z,1.00
2022-08-19T07:55:43.785Z,1.00
2022-08-19T07:58:19.361Z,1.00
2022-08-19T08:00:50.376Z,1.00
2022-08-19T08:03:21.741Z,1.00
2022-08-19T08:06:07.923Z,1.00
2022-08-19T08:08:54.370Z,1.00
2022-08-19T08:11:23.938Z,1.00
2022-08-19T08:14:01.495Z,1.00
2022-08-19T08:16:39.668Z,1.00
2022-08-19T08:19:25.466Z,1.00
2022-08-19T08:21:59.128Z,1.00
2022-08-19T08:24:29.625Z,1.00
2022-08-19T08:27:01.459Z,1.00
2022-08-19T08:29:34.591Z,1.00
2022-08-19T08:32:14.912Z,1.00
2022-08-19T08:34:44.341Z,1.00
2022-08-19T08:37:12.194Z,1.00
2022-08-19T08:39:43.693Z,1.00
2022-08-19T08:42:22.070Z,1.00
2022-08-19T08:45:16.073Z,1.00
2022-08-19T08:47:48.704Z,1.00
2022-08-19T08:50:41.253Z,1.00
2022-08-19T08:53:11.473Z,1.00
2022-08-19T08:55:41.631Z,1.00
2022-08-19T08:58:17.025Z,1.00
2022-08-19T09:00:48.237Z,1.00
2022-08-19T09:03:23.484Z,1.00
2022-08-19T09:06:18.331Z,1.00
2022-08-19T09:09:16.635Z,1.00
2022-08-19T09:12:16.325Z,1.00
2022-08-19T09:14:55.083Z,1.00
2022-08-19T09:17:28.590Z,1.00
2022-08-19T09:19:58.952Z,1.00
2022-08-19T09:22:28.092Z,1.00
2022-08-19T09:24:56.505Z,1.00
2022-08-19T09:27:53.860Z,1.00
2022-08-19T09:30:26.204Z,1.00
2022-08-19T09:32:54.753Z,1.00
2022-08-19T09:35:28.395Z,1.00
2022-08-19T09:37:59.683Z,1.00
2022-08-19T09:40:30.365Z,1.00
2022-08-19T09:43:01.740Z,1.00
2022-08-19T09:45:30.457Z,1.00
2022-08-19T09:47:58.531Z,1.00
2022-08-19T09:50:26.205Z,1.00
2022-08-19T09:52:57.113Z,1.00
2022-08-19T09:55:31.670Z,1.00
2022-08-19T09:58:03.572Z,1.00
2022-08-19T10:00:32.119Z,1.00
2022-08-19T10:03:01.143Z,1.00
2022-08-19T10:05:49.166Z,1.00
2022-08-19T10:08:20.771Z,1.00
2022-08-19T10:10:49.858Z,1.00
2022-08-19T10:13:28.693Z,1.00
2022-08-19T10:16:06.025Z,1.00
2022-08-19T10:18:35.846Z,1.00
2022-08-19T10:21:11.571Z,1.00
2022-08-19T10:23:41.480Z,1.00
2022-08-19T10:26:09.501Z,1.00
2022-08-19T10:28:42.664Z,1.00
2022-08-19T10:31:19.456Z,1.00
2022-08-19T10:33:53.965Z,1.00
2022-08-19T10:36:24.317Z,1.00
2022-08-19T10:38:58.458Z,1.00
2022-08-19T10:41:31.758Z,1.00
2022-08-19T10:44:04.218Z,1.00
2022-08-19T10:46:34.930Z,1.00
2022-08-19T10:49:03.437Z,1.00
2022-08-19T10:51:49.962Z,1.00
2022-08-19T10:54:31.217Z,1.00
2022-08-19T10:57:01.794Z,1.00
2022-08-19T10:59:35.828Z,1.00
2022-08-19T11:02:06.929Z,1.00
2022-08-19T11:04:35.775Z,1.00
2022-08-19T11:07:05.109Z,1.00
2022-08-19T11:09:34.286Z,1.00
2022-08-19T11:12:04.699Z,1.00
2022-08-19T11:14:35.847Z,1.00
2022-08-19T11:17:05.164Z,1.00
2022-08-19T11:19:32.689Z,1.00
2022-08-19T11:22:03.775Z,1.00
2022-08-19T11:24:32.790Z,1.00
2022-08-19T11:27:08.646Z,1.00
2022-08-19T11:29:41.428Z,1.00
2022-08-19T11:32:11.427Z,1.00
2022-08-19T11:34:40.904Z,1.00
2022-08-19T11:37:10.133Z,1.00
2022-08-19T11:39:38.281Z,1.00
2022-08-19T11:42:28.368Z,1.00
2022-08-19T11:44:56.748Z,1.00
2022-08-19T11:47:25.387Z,1.00
2022-08-19T11:49:55.838Z,1.00
2022-08-19T11:52:23.552Z,1.00
2022-08-19T11:54:58.968Z,1.00
2022-08-19T11:57:26.799Z,1.00
2022-08-19T11:59:54.469Z,1.00
2022-08-19T12:02:22.919Z,1.00
2022-08-19T12:04:50.923Z,1.00
2022-08-19T12:07:18.729Z,1.00
2022-08-19T12:09:46.272Z,1.00
2022-08-19T12:12:16.210Z,1.00
2022-08-19T12:14:44.319Z,1.00
2022-08-19T12:17:12.792Z,1.00
2022-08-19T12:19:41.916Z,1.00
2022-08-19T12:22:10.929Z,1.00
2022-08-19T12:24:38.282Z,1.00
2022-08-19T12:27:05.623Z,1.00
2022-08-19T12:29:36.663Z,1.00
2022-08-19T12:32:04.274Z,1.00
2022-08-19T12:34:33.769Z,1.00
2022-08-19T12:37:04.378Z,1.00
2022-08-19T12:39:43.028Z,1.00
2022-08-19T12:42:18.684Z,1.00
2022-08-19T12:44:47.646Z,1.00
2022-08-19T12:47:15.814Z,1.00
2022-08-19T12:49:53.867Z,1.00
2022-08-19T12:52:25.803Z,1.00
2022-08-19T12:54:56.626Z,1.00
2022-08-19T12:57:32.875Z,1.00
2022-08-19T13:00:11.635Z,1.00
2022-08-19T13:02:41.874Z,1.00
2022-08-19T13:05:11.285Z,1.00
2022-08-19T13:07:40.857Z,1.00
2022-08-19T13:10:12.378Z,1.00
2022-08-19T13:12:42.692Z,1.00
2022-08-19T13:15:11.503Z,1.00
2022-08-19T13:17:40.536Z,1.00
2022-08-19T13:20:14.032Z,1.00
2022-08-19T13:22:42.042Z,1.00
2022-08-19T13:25:17.815Z,1.00
2022-08-19T13:31:43.138Z,1.00
2022-08-19T13:34:11.577Z,1.00
2022-08-19T13:36:40.345Z,1.00
2022-08-19T13:39:09.646Z,1.00
2022-08-19T13:41:38.805Z,1.00
2022-08-19T13:44:07.953Z,1.00
2022-08-19T13:46:35.388Z,1.00
2022-08-19T13:49:02.895Z,1.00
2022-08-19T13:51:30.318Z,1.00
2022-08-19T13:53:57.623Z,1.00
2022-08-19T13:56:26.455Z,1.00
2022-08-19T13:58:54.884Z,1.00
2022-08-19T14:01:28.202Z,1.00
2022-08-19T14:03:56.234Z,1.00
2022-08-19T14:06:23.746Z,1.00
2022-08-19T14:08:51.464Z,1.00
2022-08-19T14:11:18.970Z,1.00
2022-08-19T14:13:46.507Z,1.00
2022-08-19T14:16:15.768Z,1.00
2022-08-19T14:18:44.225Z,1.00
2022-08-19T14:21:19.132Z,1.00
2022-08-19T14:23:47.344Z,1.00
2022-08-19T14:26:19.016Z,1.00
2022-08-19T14:28:46.852Z,1.00
2022-08-19T14:31:19.664Z,1.00
2022-08-19T14:33:49.290Z,1.00
2022-08-19T14:36:17.334Z,1.00
2022-08-19T14:38:44.966Z,1.00
2022-08-19T14:41:17.088Z,1.00
2022-08-19T14:43:49.606Z,1.00
2022-08-19T14:46:21.903Z,1.00
2022-08-19T14:48:51.847Z,1.00
2022-08-19T14:51:23.260Z,1.00
2022-08-19T14:53:51.823Z,1.00
2022-08-19T14:56:23.077Z,1.00
2022-08-19T14:58:52.870Z,1.00
2022-08-19T15:01:23.509Z,1.00
2022-08-19T15:03:54.478Z,1.00
2022-08-19T15:06:24.554Z,1.00
2022-08-19T15:08:54.770Z,1.00
2022-08-19T15:11:26.551Z,1.00
2022-08-19T15:13:54.591Z,1.00
2022-08-19T15:16:24.139Z,1.00
2022-08-19T15:18:54.604Z,1.00
2022-08-19T15:21:27.349Z,1.00
2022-08-19T15:23:58.495Z,1.00
2022-08-19T15:26:33.418Z,1.00
2022-08-19T15:29:02.789Z,1.00
2022-08-19T15:31:35.537Z,1.00
2022-08-19T15:34:09.461Z,1.00
2022-08-19T15:36:37.743Z,1.00
2022-08-19T15:39:07.664Z,1.00
2022-08-19T15:41:37.100Z,1.00
2022-08-19T15:44:13.749Z,1.00
2022-08-19T15:46:44.553Z,1.00
2022-08-19T15:49:14.599Z,1.00
2022-08-19T15:51:44.302Z,1.00
2022-08-19T15:54:16.658Z,1.00
2022-08-19T15:57:03.711Z,1.00
2022-08-19T15:59:52.175Z,1.00
2022-08-19T16:02:40.620Z,1.00
2022-08-19T16:05:29.876Z,1.00
2022-08-19T16:07:57.864Z,1.00
2022-08-19T16:10:28.129Z,1.00
2022-08-19T16:12:58.111Z,1.00
2022-08-19T16:15:28.827Z,1.00
2022-08-19T16:17:58.053Z,1.00
2022-08-19T16:20:27.481Z,1.00
2022-08-19T16:22:58.768Z,1.00
2022-08-19T16:25:29.386Z,1.00
2022-08-19T16:28:07.217Z,1.00
2022-08-19T16:30:40.152Z,1.00
2022-08-19T16:33:09.608Z,1.00
2022-08-19T16:35:37.157Z,1.00
2022-08-19T16:38:06.104Z,1.00
2022-08-19T16:40:35.155Z,1.00
2022-08-19T16:43:03.152Z,1.00
2022-08-19T16:45:30.788Z,1.00
2022-08-19T16:47:58.641Z,1.00
2022-08-19T16:50:46.222Z,1.00
2022-08-19T16:53:14.724Z,1.00
2022-08-19T16:55:42.044Z,1.00
2022-08-19T16:58:09.619Z,1.00
2022-08-19T17:00:37.416Z,1.00
2022-08-19T17:03:14.691Z,1.00
2022-08-19T17:05:51.361Z,1.00
2022-08-19T17:08:27.045Z,1.00
2022-08-19T17:11:17.320Z,1.00
2022-08-19T17:13:44.600Z,1.00
2022-08-19T17:16:17.715Z,1.00
2022-08-19T17:18:45.133Z,1.00
2022-08-19T17:21:14.889Z,1.00
2022-08-19T17:23:44.172Z,1.00
2022-08-19T17:26:18.190Z,1.00
2022-08-19T17:28:50.227Z,1.00
2022-08-19T17:31:20.170Z,1.00
2022-08-19T17:33:48.880Z,1.00
2022-08-19T17:36:19.262Z,1.00
2022-08-19T17:38:46.967Z,1.00
2022-08-19T17:41:14.883Z,1.00
2022-08-19T17:43:44.305Z,1.00
2022-08-19T17:46:20.647Z,1.00
2022-08-19T17:48:52.674Z,1.00
2022-08-19T17:51:36.778Z,1.00
2022-08-19T17:54:07.069Z,1.00
2022-08-19T17:56:36.154Z,1.00
2022-08-19T17:59:04.289Z,1.00
2022-08-19T18:01:52.541Z,1.00
2022-08-19T18:04:25.202Z,1.00
2022-08-19T18:06:55.317Z,1.00
2022-08-19T18:09:41.879Z,1.00
2022-08-19T18:12:13.728Z,1.00
2022-08-19T18:14:43.585Z,1.00
2022-08-19T18:17:14.625Z,1.00
2022-08-19T18:19:43.962Z,1.00
2022-08-19T18:22:27.019Z,1.00
2022-08-19T18:24:56.548Z,1.00
2022-08-19T18:27:25.527Z,1.00
2022-08-19T18:29:57.697Z,1.00
2022-08-19T18:32:43.694Z,1.00
2022-08-19T18:35:15.289Z,1.00
2022-08-19T18:37:45.555Z,1.00
2022-08-19T18:40:35.043Z,1.00
2022-08-19T18:43:21.453Z,1.00
2022-08-19T18:46:22.619Z,1.00
2022-08-19T18:49:07.403Z,1.00
2022-08-19T18:51:35.006Z,1.00
2022-08-19T18:54:03.765Z,1.00
2022-08-19T18:56:32.496Z,1.00
2022-08-19T18:59:01.125Z,1.00
2022-08-19T19:01:34.986Z,1.00
2022-08-19T19:04:07.568Z,1.00
2022-08-19T19:06:40.576Z,1.00
2022-08-19T19:09:11.083Z,1.00
2022-08-19T19:11:44.513Z,1.00
2022-08-19T19:14:27.651Z,1.00
2022-08-19T19:17:12.988Z,1.00
2022-08-19T19:19:43.031Z,1.00
2022-08-19T19:22:15.742Z,1.00
2022-08-19T19:24:46.264Z,1.00
2022-08-19T19:27:16.862Z,1.00
2022-08-19T19:29:51.108Z,1.00
2022-08-19T19:32:30.034Z,1.00
2022-08-19T19:34:59.736Z,1.00
2022-08-19T19:37:27.736Z,1.00
2022-08-19T19:39:55.711Z,1.00
2022-08-19T19:42:24.168Z,1.00
2022-08-19T19:44:55.857Z,1.00
2022-08-19T19:47:30.568Z,1.00
2022-08-19T19:50:15.515Z,1.00
2022-08-19T19:52:46.240Z,1.00
2022-08-19T19:55:18.610Z,1.00
2022-08-19T19:57:49.017Z,1.00
2022-08-19T20:00:19.166Z,1.00
2022-08-19T20:02:50.465Z,1.00
2022-08-19T20:05:25.996Z,1.00
2022-08-19T20:08:13.949Z,1.00
2022-08-19T20:10:43.529Z,1.00
2022-08-19T20:13:13.933Z,1.00
2022-08-19T20:15:46.018Z,1.00
2022-08-19T20:18:16.996Z,1.00
2022-08-19T20:20:46.948Z,1.00
2022-08-19T20:23:15.236Z,1.00
2022-08-19T20:25:43.798Z,1.00
2022-08-19T20:28:12.843Z,1.00
2022-08-19T20:30:46.549Z,1.00
2022-08-19T20:33:15.991Z,1.00
2022-08-19T20:35:47.229Z,1.00
2022-08-19T20:38:20.881Z,1.00
2022-08-19T20:40:49.337Z,1.00
2022-08-19T20:43:17.731Z,1.00
2022-08-19T20:45:45.179Z,1.00
2022-08-19T20:48:13.952Z,1.00
2022-08-19T20:50:48.646Z,1.00
2022-08-19T20:53:20.095Z,1.00
2022-08-19T20:55:53.007Z,1.00
2022-08-19T20:58:26.803Z,1.00
2022-08-19T21:01:00.042Z,1.00
2022-08-19T21:03:32.395Z,1.00
2022-08-19T21:06:01.403Z,1.00
2022-08-19T21:08:30.110Z,1.00
2022-08-19T21:10:58.322Z,1.00
2022-08-19T21:13:27.328Z,1.00
2022-08-19T21:15:55.866Z,1.00
2022-08-19T21:18:26.972Z,1.00
2022-08-19T21:20:56.222Z,1.00
2022-08-19T21:23:27.440Z,1.00
2022-08-19T21:25:57.240Z,1.00
2022-08-19T21:28:35.093Z,1.00
2022-08-19T21:31:10.813Z,1.00
2022-08-19T21:33:39.278Z,1.00
2022-08-19T21:36:08.503Z,1.00
2022-08-19T21:38:36.405Z,1.00
2022-08-19T21:41:06.468Z,1.00
2022-08-19T21:43:38.639Z,1.00
2022-08-19T21:46:07.474Z,1.00
2022-08-19T21:48:36.913Z,1.00
2022-08-19T21:51:06.302Z,1.00
2022-08-19T21:53:36.658Z,1.00
2022-08-19T21:56:09.324Z,1.00
2022-08-19T21:58:37.426Z,1.00
2022-08-19T22:01:08.183Z,1.00
2022-08-19T22:03:38.498Z,1.00
2022-08-19T22:06:07.555Z,1.00
2022-08-19T22:08:35.548Z,1.00
2022-08-19T22:11:04.664Z,1.00
2022-08-19T22:13:40.366Z,1.00
2022-08-19T22:16:09.850Z,1.00
2022-08-19T22:18:37.525Z,1.00
2022-08-19T22:21:11.403Z,1.00
2022-08-19T22:23:41.483Z,1.00
2022-08-19T22:26:09.459Z,1.00
2022-08-19T22:28:36.778Z,1.00
2022-08-19T22:31:06.323Z,1.00
2022-08-19T22:33:33.802Z,1.00
2022-08-19T22:36:01.242Z,1.00
2022-08-19T22:38:29.113Z,1.00
2022-08-19T22:40:56.787Z,1.00
2022-08-19T22:43:27.036Z,1.00
2022-08-19T22:45:56.600Z,1.00
2022-08-19T22:48:26.857Z,1.00
2022-08-19T22:51:18.170Z,1.00
2022-08-19T22:53:47.374Z,1.00
2022-08-19T22:56:18.618Z,1.00
2022-08-19T22:58:47.152Z,1.00
2022-08-19T23:01:29.646Z,1.00
2022-08-19T23:03:59.691Z,1.00
2022-08-19T23:06:33.473Z,1.00
2022-08-19T23:09:05.188Z,1.00
2022-08-19T23:11:41.681Z,1.00
2022-08-19T23:14:11.674Z,1.00
2022-08-19T23:16:42.002Z,1.00
2022-08-19T23:19:09.825Z,1.00
2022-08-19T23:21:39.052Z,1.00
2022-08-19T23:24:07.252Z,1.00
2022-08-19T23:26:36.142Z,1.00
2022-08-19T23:29:24.416Z,1.00
2022-08-19T23:31:55.526Z,1.00
2022-08-19T23:37:05.892Z,1.00
2022-08-19T23:39:33.286Z,1.00
2022-08-19T23:42:01.688Z,1.00
2022-08-19T23:44:30.370Z,1.00
2022-08-19T23:46:59.348Z,1.00
2022-08-19T23:49:33.304Z,1.00
2022-08-19T23:52:00.661Z,1.00
2022-08-19T23:54:43.509Z,1.00
2022-08-19T23:57:14.362Z,1.00
2022-08-19T23:59:43.199Z,1.00
